createdAt,value
2017-09-30T00:00:17.948Z,23.25
2017-09-30T00:02:20.380Z,23.21
2017-09-30T00:04:22.936Z,23.22
2017-09-30T00:06:25.373Z,23.20
2017-09-30T00:08:27.829Z,23.23
2017-09-30T00:10:30.433Z,23.22
2017-09-30T00:12:32.875Z,23.21
2017-09-30T00:14:35.315Z,23.23
2017-09-30T00:16:37.772Z,23.20
2017-09-30T00:18:40.215Z,23.21
2017-09-30T00:20:42.649Z,23.22
2017-09-30T00:22:45.109Z,23.17
2017-09-30T00:24:47.869Z,23.19
2017-09-30T00:26:50.312Z,23.17
2017-09-30T00:28:52.870Z,23.19
2017-09-30T00:30:55.341Z,23.18
2017-09-30T00:32:57.782Z,23.17
2017-09-30T00:35:00.252Z,23.14
2017-09-30T00:37:02.688Z,23.11
2017-09-30T00:39:05.127Z,23.13
2017-09-30T00:41:07.589Z,23.10
2017-09-30T00:43:10.070Z,23.08
2017-09-30T00:45:12.507Z,23.07
2017-09-30T00:47:15.004Z,23.05
2017-09-30T00:49:17.475Z,23.03
2017-09-30T00:51:19.936Z,23.02
2017-09-30T00:53:22.396Z,22.97
2017-09-30T00:55:24.827Z,22.94
2017-09-30T00:57:27.271Z,22.94
2017-09-30T00:59:29.824Z,22.99
2017-09-30T01:01:32.296Z,22.98
2017-09-30T01:03:34.773Z,22.98
2017-09-30T01:05:37.345Z,22.93
2017-09-30T01:07:39.804Z,22.90
2017-09-30T01:09:42.252Z,23.01
2017-09-30T01:11:44.958Z,22.96
2017-09-30T01:13:47.397Z,22.93
2017-09-30T01:15:49.845Z,22.94
2017-09-30T01:17:52.300Z,22.95
2017-09-30T01:19:54.749Z,22.93
2017-09-30T01:21:57.185Z,22.90
2017-09-30T01:23:59.674Z,22.92
2017-09-30T01:26:02.117Z,22.97
2017-09-30T01:28:04.552Z,22.92
2017-09-30T01:30:07.100Z,22.86
2017-09-30T01:32:09.540Z,22.84
2017-09-30T01:34:11.972Z,22.97
2017-09-30T01:36:14.436Z,23.00
2017-09-30T01:38:16.873Z,23.01
2017-09-30T01:40:20.365Z,22.99
2017-09-30T01:42:22.842Z,22.88
2017-09-30T01:44:25.399Z,22.84
2017-09-30T01:46:27.868Z,22.86
2017-09-30T01:48:30.334Z,22.89
2017-09-30T01:50:32.777Z,22.84
2017-09-30T01:52:35.216Z,22.94
2017-09-30T01:54:37.679Z,22.96
2017-09-30T01:56:40.116Z,22.90
2017-09-30T01:58:42.543Z,22.93
2017-09-30T02:00:45.057Z,22.97
2017-09-30T02:02:47.507Z,22.95
2017-09-30T02:04:49.956Z,22.94
2017-09-30T02:06:52.575Z,23.00
2017-09-30T02:08:55.025Z,23.01
2017-09-30T02:10:57.464Z,22.99
2017-09-30T02:13:00.168Z,22.89
2017-09-30T02:15:02.613Z,22.94
2017-09-30T02:17:05.047Z,22.94
2017-09-30T02:19:07.567Z,22.94
2017-09-30T02:21:10.013Z,22.95
2017-09-30T02:23:12.532Z,22.97
2017-09-30T02:25:14.980Z,22.98
2017-09-30T02:27:17.416Z,23.01
2017-09-30T02:29:19.847Z,23.02
2017-09-30T02:31:22.304Z,22.99
2017-09-30T02:33:24.784Z,22.98
2017-09-30T02:35:27.224Z,22.96
2017-09-30T02:37:29.691Z,22.93
2017-09-30T02:39:32.396Z,22.97
2017-09-30T02:41:34.830Z,22.99
2017-09-30T02:43:37.331Z,23.02
2017-09-30T02:45:39.765Z,23.05
2017-09-30T02:47:42.188Z,23.02
2017-09-30T02:49:44.656Z,22.98
2017-09-30T02:51:47.093Z,22.96
2017-09-30T02:53:49.529Z,22.96
2017-09-30T02:55:52.003Z,22.98
2017-09-30T02:57:54.445Z,23.00
2017-09-30T02:59:56.891Z,22.98
2017-09-30T03:01:59.426Z,22.96
2017-09-30T03:04:01.860Z,22.89
2017-09-30T03:06:04.293Z,22.92
2017-09-30T03:08:06.751Z,23.00
2017-09-30T03:10:09.184Z,23.00
2017-09-30T03:12:11.622Z,22.97
2017-09-30T03:14:14.537Z,22.99
2017-09-30T03:16:16.979Z,23.00
2017-09-30T03:18:19.430Z,23.01
2017-09-30T03:20:21.898Z,22.91
2017-09-30T03:22:24.340Z,22.92
2017-09-30T03:24:26.772Z,22.96
2017-09-30T03:26:29.237Z,22.97
2017-09-30T03:28:31.685Z,22.93
2017-09-30T03:30:34.117Z,22.93
2017-09-30T03:32:36.585Z,22.96
2017-09-30T03:34:39.040Z,22.88
2017-09-30T03:36:41.572Z,22.87
2017-09-30T03:38:44.080Z,22.87
2017-09-30T03:40:46.520Z,22.84
2017-09-30T03:42:48.953Z,22.81
2017-09-30T03:44:51.412Z,22.75
2017-09-30T03:46:53.850Z,22.78
2017-09-30T03:48:56.372Z,22.89
2017-09-30T03:50:58.827Z,22.93
2017-09-30T03:53:01.329Z,22.93
2017-09-30T03:55:03.795Z,22.93
2017-09-30T03:57:06.257Z,22.93
2017-09-30T03:59:08.694Z,22.87
2017-09-30T04:01:11.146Z,22.86
2017-09-30T04:03:13.640Z,22.86
2017-09-30T04:05:16.084Z,22.86
2017-09-30T04:07:18.511Z,22.86
2017-09-30T04:09:21.089Z,22.87
2017-09-30T04:11:23.544Z,22.92
2017-09-30T04:13:25.981Z,22.88
2017-09-30T04:15:28.672Z,22.87
2017-09-30T04:17:31.120Z,22.83
2017-09-30T04:19:33.567Z,22.83
2017-09-30T04:21:36.104Z,22.82
2017-09-30T04:23:38.539Z,22.78
2017-09-30T04:25:40.982Z,22.78
2017-09-30T04:27:43.512Z,22.79
2017-09-30T04:29:45.992Z,22.78
2017-09-30T04:31:48.441Z,22.78
2017-09-30T04:33:50.903Z,22.81
2017-09-30T04:35:53.404Z,22.81
2017-09-30T04:37:55.836Z,22.79
2017-09-30T04:39:58.345Z,22.82
2017-09-30T04:42:00.788Z,22.79
2017-09-30T04:44:03.228Z,22.77
2017-09-30T04:46:05.688Z,22.77
2017-09-30T04:48:08.120Z,22.74
2017-09-30T04:50:10.560Z,22.76
2017-09-30T04:52:13.065Z,22.77
2017-09-30T04:54:15.509Z,22.78
2017-09-30T04:56:17.939Z,22.80
2017-09-30T04:58:20.410Z,22.78
2017-09-30T05:00:22.844Z,22.79
2017-09-30T05:02:25.315Z,22.78
2017-09-30T05:04:27.973Z,22.78
2017-09-30T05:06:30.458Z,22.76
2017-09-30T05:08:32.989Z,22.77
2017-09-30T05:10:35.449Z,22.78
2017-09-30T05:12:37.888Z,22.74
2017-09-30T05:14:40.327Z,22.80
2017-09-30T05:16:43.095Z,22.76
2017-09-30T05:18:45.537Z,22.78
2017-09-30T05:20:47.976Z,22.78
2017-09-30T05:22:50.436Z,22.78
2017-09-30T05:24:52.909Z,22.75
2017-09-30T05:26:55.363Z,22.73
2017-09-30T05:28:57.880Z,22.73
2017-09-30T05:31:00.321Z,22.71
2017-09-30T05:33:02.769Z,22.75
2017-09-30T05:35:05.249Z,22.76
2017-09-30T05:37:07.688Z,22.74
2017-09-30T05:39:10.175Z,22.77
2017-09-30T05:41:12.652Z,22.79
2017-09-30T05:43:15.086Z,22.79
2017-09-30T05:45:17.530Z,22.76
2017-09-30T05:47:20.012Z,22.81
2017-09-30T05:49:22.449Z,22.81
2017-09-30T05:51:24.941Z,22.82
2017-09-30T05:53:27.479Z,22.85
2017-09-30T05:55:29.913Z,22.85
2017-09-30T05:57:32.421Z,22.81
2017-09-30T05:59:34.891Z,22.78
2017-09-30T06:01:37.335Z,22.77
2017-09-30T06:03:39.772Z,22.74
2017-09-30T06:05:42.255Z,22.76
2017-09-30T06:07:44.725Z,22.82
2017-09-30T06:09:47.183Z,22.80
2017-09-30T06:11:49.724Z,22.81
2017-09-30T06:13:52.170Z,22.80
2017-09-30T06:15:54.612Z,22.78
2017-09-30T06:17:57.417Z,22.76
2017-09-30T06:19:59.862Z,22.77
2017-09-30T06:22:02.297Z,22.82
2017-09-30T06:24:04.767Z,22.78
2017-09-30T06:26:07.205Z,22.79
2017-09-30T06:28:09.653Z,22.84
2017-09-30T06:30:12.192Z,22.83
2017-09-30T06:32:14.622Z,22.82
2017-09-30T06:34:17.077Z,22.79
2017-09-30T06:36:19.586Z,22.77
2017-09-30T06:38:22.024Z,22.76
2017-09-30T06:40:24.457Z,22.77
2017-09-30T06:42:26.936Z,22.78
2017-09-30T06:44:29.364Z,22.84
2017-09-30T06:46:31.841Z,22.86
2017-09-30T06:48:34.301Z,22.84
2017-09-30T06:50:36.740Z,22.89
2017-09-30T06:52:39.233Z,22.87
2017-09-30T06:54:41.695Z,22.91
2017-09-30T06:56:44.149Z,22.90
2017-09-30T06:58:46.622Z,22.85
2017-09-30T07:00:49.104Z,22.86
2017-09-30T07:02:51.584Z,22.84
2017-09-30T07:04:54.016Z,22.81
2017-09-30T07:06:56.478Z,22.84
2017-09-30T07:08:58.967Z,22.83
2017-09-30T07:11:01.438Z,22.77
2017-09-30T07:13:03.934Z,22.76
2017-09-30T07:15:06.373Z,22.78
2017-09-30T07:17:08.968Z,22.82
2017-09-30T07:19:11.720Z,22.87
2017-09-30T07:21:14.152Z,22.89
2017-09-30T07:23:16.597Z,22.87
2017-09-30T07:25:19.067Z,22.89
2017-09-30T07:27:21.502Z,22.90
2017-09-30T07:29:23.948Z,22.90
2017-09-30T07:31:26.420Z,22.89
2017-09-30T07:33:28.931Z,22.88
2017-09-30T07:35:31.368Z,22.87
2017-09-30T07:37:33.838Z,22.85
2017-09-30T07:39:36.329Z,22.83
2017-09-30T07:41:38.772Z,22.86
2017-09-30T07:43:41.337Z,22.92
2017-09-30T07:45:43.779Z,22.95
2017-09-30T07:47:46.231Z,22.95
2017-09-30T07:49:48.696Z,22.99
2017-09-30T07:51:51.148Z,22.97
2017-09-30T07:53:53.620Z,22.96
2017-09-30T07:55:56.092Z,22.99
2017-09-30T07:57:58.554Z,22.92
2017-09-30T08:00:01.000Z,22.97
2017-09-30T08:02:03.500Z,22.97
2017-09-30T08:04:05.945Z,22.99
2017-09-30T08:06:08.428Z,22.94
2017-09-30T08:08:10.886Z,22.93
2017-09-30T08:10:13.379Z,22.93
2017-09-30T08:12:15.868Z,22.95
2017-09-30T08:14:18.327Z,22.97
2017-09-30T08:16:20.802Z,22.99
2017-09-30T08:18:23.242Z,23.00
2017-09-30T08:20:26.203Z,22.94
2017-09-30T08:22:28.719Z,22.88
2017-09-30T08:24:31.156Z,22.88
2017-09-30T08:26:33.618Z,22.77
2017-09-30T08:28:36.060Z,22.83
2017-09-30T08:30:38.500Z,22.88
2017-09-30T08:32:40.953Z,22.89
2017-09-30T08:34:43.398Z,22.87
2017-09-30T08:36:45.866Z,22.89
2017-09-30T08:38:48.442Z,22.93
2017-09-30T08:40:50.908Z,22.95
2017-09-30T08:42:53.346Z,22.97
2017-09-30T08:44:55.821Z,22.94
2017-09-30T08:46:58.372Z,22.94
2017-09-30T08:49:00.945Z,22.91
2017-09-30T08:51:03.402Z,22.91
2017-09-30T08:53:05.859Z,22.92
2017-09-30T08:55:08.332Z,22.84
2017-09-30T08:57:10.818Z,22.84
2017-09-30T08:59:13.266Z,22.89
2017-09-30T09:01:15.742Z,22.91
2017-09-30T09:03:18.208Z,22.87
2017-09-30T09:05:20.672Z,22.80
2017-09-30T09:07:23.168Z,22.76
2017-09-30T09:09:25.621Z,22.75
2017-09-30T09:11:28.112Z,22.84
2017-09-30T09:13:30.557Z,22.79
2017-09-30T09:15:33.012Z,22.83
2017-09-30T09:17:35.480Z,22.85
2017-09-30T09:19:37.997Z,22.85
2017-09-30T09:21:40.673Z,22.88
2017-09-30T09:23:43.124Z,22.83
2017-09-30T09:25:45.603Z,22.83
2017-09-30T09:27:48.064Z,22.84
2017-09-30T09:29:50.609Z,22.89
2017-09-30T09:31:53.056Z,22.89
2017-09-30T09:33:55.517Z,22.86
2017-09-30T09:35:57.968Z,22.76
2017-09-30T09:38:00.441Z,22.79
2017-09-30T09:40:02.920Z,22.84
2017-09-30T09:42:05.367Z,22.81
2017-09-30T09:44:07.827Z,22.84
2017-09-30T09:46:10.302Z,22.84
2017-09-30T09:48:12.787Z,22.81
2017-09-30T09:50:15.249Z,22.79
2017-09-30T09:52:17.744Z,22.76
2017-09-30T09:54:20.200Z,22.69
2017-09-30T09:56:22.675Z,22.75
2017-09-30T09:58:25.136Z,22.73
2017-09-30T10:00:27.594Z,22.73
2017-09-30T10:02:30.071Z,22.69
2017-09-30T10:04:32.632Z,22.67
2017-09-30T10:06:35.186Z,22.62
2017-09-30T10:08:37.625Z,22.56
2017-09-30T10:10:40.162Z,22.54
2017-09-30T10:12:42.591Z,22.46
2017-09-30T10:14:45.033Z,22.44
2017-09-30T10:16:47.572Z,22.36
2017-09-30T10:18:50.008Z,22.42
2017-09-30T10:20:52.479Z,22.39
2017-09-30T10:22:55.284Z,22.49
2017-09-30T10:24:57.769Z,22.47
2017-09-30T10:27:00.204Z,22.37
2017-09-30T10:29:02.713Z,22.36
2017-09-30T10:31:05.149Z,22.33
2017-09-30T10:33:07.595Z,22.41
2017-09-30T10:35:10.102Z,22.41
2017-09-30T10:37:12.540Z,22.44
2017-09-30T10:39:15.040Z,22.37
2017-09-30T10:41:17.500Z,22.50
2017-09-30T10:43:19.933Z,22.54
2017-09-30T10:45:22.380Z,22.51
2017-09-30T10:47:24.848Z,22.45
2017-09-30T10:49:27.458Z,22.43
2017-09-30T10:51:29.891Z,22.39
2017-09-30T10:53:32.379Z,22.32
2017-09-30T10:55:34.900Z,22.47
2017-09-30T10:57:37.341Z,22.45
2017-09-30T10:59:39.843Z,22.38
2017-09-30T11:01:42.313Z,22.37
2017-09-30T11:03:44.751Z,22.49
2017-09-30T11:05:47.240Z,22.56
2017-09-30T11:07:49.744Z,22.47
2017-09-30T11:09:52.201Z,22.50
2017-09-30T11:11:54.710Z,22.58
2017-09-30T11:13:57.149Z,22.64
2017-09-30T11:15:59.616Z,22.61
2017-09-30T11:18:02.127Z,22.63
2017-09-30T11:20:04.557Z,22.55
2017-09-30T11:22:07.025Z,22.50
2017-09-30T11:24:09.785Z,22.61
2017-09-30T11:26:12.224Z,22.53
2017-09-30T11:28:14.707Z,22.44
2017-09-30T11:30:17.184Z,22.33
2017-09-30T11:32:19.612Z,22.34
2017-09-30T11:34:22.044Z,22.34
2017-09-30T11:36:24.714Z,22.31
2017-09-30T11:38:27.153Z,22.36
2017-09-30T11:40:29.657Z,22.43
2017-09-30T11:42:32.116Z,22.42
2017-09-30T11:44:34.600Z,22.44
2017-09-30T11:46:37.077Z,22.52
2017-09-30T11:48:39.572Z,22.46
2017-09-30T11:50:42.115Z,22.42
2017-09-30T11:52:44.549Z,22.42
2017-09-30T11:54:47.016Z,22.50
2017-09-30T11:56:49.451Z,22.44
2017-09-30T11:58:51.892Z,22.35
2017-09-30T12:00:54.400Z,22.42
2017-09-30T12:02:56.834Z,22.42
2017-09-30T12:04:59.466Z,22.43
2017-09-30T12:07:01.952Z,22.52
2017-09-30T12:09:04.384Z,22.38
2017-09-30T12:11:06.920Z,22.46
2017-09-30T12:13:09.392Z,22.44
2017-09-30T12:15:11.832Z,22.46
2017-09-30T12:17:14.268Z,22.53
2017-09-30T12:19:16.724Z,22.50
2017-09-30T12:21:19.165Z,22.49
2017-09-30T12:23:21.592Z,22.46
2017-09-30T12:25:24.213Z,22.45
2017-09-30T12:27:26.661Z,22.51
2017-09-30T12:29:29.104Z,22.49
2017-09-30T12:31:31.704Z,22.48
2017-09-30T12:33:34.140Z,22.54
2017-09-30T12:35:36.580Z,22.45
2017-09-30T12:37:39.052Z,22.53
2017-09-30T12:39:41.500Z,22.50
2017-09-30T12:41:43.931Z,22.52
2017-09-30T12:43:46.385Z,22.51
2017-09-30T12:45:48.866Z,22.52
2017-09-30T12:47:51.297Z,22.50
2017-09-30T12:49:53.849Z,22.49
2017-09-30T12:51:56.277Z,22.53
2017-09-30T12:53:58.725Z,22.44
2017-09-30T12:56:01.186Z,22.49
2017-09-30T12:58:03.636Z,22.54
2017-09-30T13:00:06.074Z,22.55
2017-09-30T13:02:08.536Z,22.49
2017-09-30T13:04:10.996Z,22.50
2017-09-30T13:06:13.450Z,22.40
2017-09-30T13:08:15.905Z,22.45
2017-09-30T13:10:18.356Z,22.48
2017-09-30T13:12:20.881Z,22.47
2017-09-30T13:14:23.333Z,22.43
2017-09-30T13:16:25.785Z,22.32
2017-09-30T13:18:28.220Z,22.31
2017-09-30T13:20:30.812Z,22.35
2017-09-30T13:22:33.264Z,22.22
2017-09-30T13:24:35.700Z,22.30
2017-09-30T13:26:38.480Z,22.36
2017-09-30T13:28:40.977Z,22.23
2017-09-30T13:30:43.420Z,22.31
2017-09-30T13:32:45.902Z,22.17
2017-09-30T13:34:48.340Z,22.23
2017-09-30T13:36:50.869Z,22.19
2017-09-30T13:38:53.321Z,22.08
2017-09-30T13:40:55.811Z,22.04
2017-09-30T13:42:58.249Z,22.10
2017-09-30T13:45:00.744Z,22.18
2017-09-30T13:47:03.181Z,22.21
2017-09-30T13:49:05.624Z,22.15
2017-09-30T13:51:08.105Z,22.25
2017-09-30T13:53:10.587Z,22.17
2017-09-30T13:55:13.022Z,22.16
2017-09-30T13:57:15.512Z,22.17
2017-09-30T13:59:18.036Z,22.15
2017-09-30T14:01:20.472Z,22.19
2017-09-30T14:03:22.985Z,22.30
2017-09-30T14:05:25.424Z,22.17
2017-09-30T14:07:27.878Z,22.20
2017-09-30T14:09:30.351Z,22.13
2017-09-30T14:11:32.781Z,22.14
2017-09-30T14:13:35.246Z,22.25
2017-09-30T14:15:37.772Z,22.26
2017-09-30T14:17:41.110Z,22.15
2017-09-30T14:19:43.553Z,22.13
2017-09-30T14:21:46.148Z,22.22
2017-09-30T14:23:48.586Z,22.22
2017-09-30T14:25:51.078Z,22.19
2017-09-30T14:27:53.844Z,22.13
2017-09-30T14:29:56.279Z,22.22
2017-09-30T14:31:58.724Z,22.02
2017-09-30T14:34:01.264Z,22.07
2017-09-30T14:36:03.706Z,22.08
2017-09-30T14:38:06.148Z,22.03
2017-09-30T14:40:08.605Z,22.15
2017-09-30T14:42:11.038Z,22.10
2017-09-30T14:44:13.494Z,22.17
2017-09-30T14:46:15.980Z,22.08
2017-09-30T14:48:18.422Z,22.05
2017-09-30T14:50:20.862Z,22.11
2017-09-30T14:52:23.329Z,22.08
2017-09-30T14:54:25.857Z,22.08
2017-09-30T14:56:28.337Z,22.09
2017-09-30T14:58:30.890Z,22.18
2017-09-30T15:00:33.330Z,22.18
2017-09-30T15:02:35.809Z,22.16
2017-09-30T15:04:38.329Z,22.17
2017-09-30T15:06:40.772Z,22.21
2017-09-30T15:08:43.221Z,22.15
2017-09-30T15:10:45.785Z,22.17
2017-09-30T15:12:48.300Z,22.21
2017-09-30T15:14:50.732Z,22.24
2017-09-30T15:16:53.205Z,22.27
2017-09-30T15:18:55.640Z,22.22
2017-09-30T15:20:58.077Z,22.22
2017-09-30T15:23:00.537Z,22.17
2017-09-30T15:25:03.036Z,22.15
2017-09-30T15:27:05.505Z,22.05
2017-09-30T15:29:08.550Z,22.17
2017-09-30T15:31:10.998Z,22.20
2017-09-30T15:33:13.475Z,22.22
2017-09-30T15:35:16.042Z,22.20
2017-09-30T15:37:18.486Z,22.19
2017-09-30T15:39:20.931Z,22.15
2017-09-30T15:41:23.400Z,22.18
2017-09-30T15:43:25.841Z,22.21
2017-09-30T15:45:28.276Z,22.22
2017-09-30T15:47:30.807Z,22.26
2017-09-30T15:49:33.282Z,22.25
2017-09-30T15:51:35.730Z,22.31
2017-09-30T15:53:38.203Z,22.24
2017-09-30T15:55:40.629Z,22.23
2017-09-30T15:57:43.158Z,22.20
2017-09-30T15:59:45.675Z,22.25
2017-09-30T16:01:48.133Z,22.25
2017-09-30T16:03:50.571Z,22.26
2017-09-30T16:05:53.052Z,22.24
2017-09-30T16:07:55.689Z,22.25
2017-09-30T16:09:58.158Z,22.22
2017-09-30T16:12:00.612Z,22.26
2017-09-30T16:14:03.057Z,22.24
2017-09-30T16:16:05.499Z,22.24
2017-09-30T16:18:08.006Z,22.25
2017-09-30T16:20:10.500Z,22.22
2017-09-30T16:22:12.959Z,22.18
2017-09-30T16:24:15.407Z,22.17
2017-09-30T16:26:17.854Z,22.22
2017-09-30T16:28:20.280Z,22.16
2017-09-30T16:30:23.023Z,22.17
2017-09-30T16:32:25.471Z,22.20
2017-09-30T16:34:27.920Z,22.22
2017-09-30T16:36:30.391Z,22.22
2017-09-30T16:38:32.830Z,22.27
2017-09-30T16:40:35.291Z,22.31
2017-09-30T16:42:37.804Z,22.27
2017-09-30T16:44:40.280Z,22.16
2017-09-30T16:46:42.717Z,22.18
2017-09-30T16:48:45.202Z,22.17
2017-09-30T16:50:47.641Z,22.13
2017-09-30T16:52:50.085Z,22.12
2017-09-30T16:54:52.593Z,22.18
2017-09-30T16:56:55.957Z,22.15
2017-09-30T16:58:58.512Z,22.16
2017-09-30T17:01:01.231Z,22.16
2017-09-30T17:03:03.678Z,22.17
2017-09-30T17:05:06.112Z,22.14
2017-09-30T17:07:08.570Z,22.15
2017-09-30T17:09:11.060Z,22.11
2017-09-30T17:11:13.561Z,22.14
2017-09-30T17:13:16.049Z,22.12
2017-09-30T17:15:18.568Z,22.12
2017-09-30T17:17:21.012Z,22.18
2017-09-30T17:19:23.482Z,22.15
2017-09-30T17:21:25.989Z,22.06
2017-09-30T17:23:28.440Z,22.07
2017-09-30T17:25:31.008Z,22.13
2017-09-30T17:27:33.468Z,22.15
2017-09-30T17:29:35.916Z,22.12
2017-09-30T17:31:38.629Z,22.14
2017-09-30T17:33:41.066Z,22.11
2017-09-30T17:35:43.630Z,22.06
2017-09-30T17:37:46.440Z,22.10
2017-09-30T17:39:48.907Z,22.08
2017-09-30T17:41:51.360Z,22.05
2017-09-30T17:43:53.838Z,22.05
2017-09-30T17:45:56.328Z,22.10
2017-09-30T17:47:58.770Z,22.12
2017-09-30T17:50:01.280Z,22.10
2017-09-30T17:52:03.734Z,22.09
2017-09-30T17:54:06.212Z,22.09
2017-09-30T17:56:08.671Z,22.05
2017-09-30T17:58:11.112Z,22.10
2017-09-30T18:00:13.567Z,22.07
2017-09-30T18:02:16.132Z,22.08
2017-09-30T18:04:18.652Z,22.13
2017-09-30T18:06:21.097Z,22.10
2017-09-30T18:08:23.580Z,22.08
2017-09-30T18:10:26.032Z,21.99
2017-09-30T18:12:28.482Z,22.04
2017-09-30T18:14:30.951Z,22.08
2017-09-30T18:16:33.389Z,22.09
2017-09-30T18:18:35.886Z,22.09
2017-09-30T18:20:38.340Z,22.04
2017-09-30T18:22:40.775Z,22.04
2017-09-30T18:24:43.263Z,22.12
2017-09-30T18:26:45.733Z,22.06
2017-09-30T18:28:48.169Z,22.07
2017-09-30T18:30:50.609Z,22.05
2017-09-30T18:32:53.220Z,22.07
2017-09-30T18:34:55.664Z,22.03
2017-09-30T18:36:58.107Z,22.05
2017-09-30T18:39:00.652Z,22.05
2017-09-30T18:41:03.285Z,22.05
2017-09-30T18:43:06.043Z,22.05
2017-09-30T18:45:08.580Z,22.07
2017-09-30T18:47:12.065Z,22.08
2017-09-30T18:49:15.057Z,22.04
2017-09-30T18:51:17.625Z,22.09
2017-09-30T18:53:20.103Z,22.09
2017-09-30T18:55:22.553Z,22.12
2017-09-30T18:57:25.022Z,22.10
2017-09-30T18:59:27.782Z,22.11
2017-09-30T19:01:31.192Z,22.07
2017-09-30T19:03:33.977Z,21.96
2017-09-30T19:05:36.430Z,22.01
2017-09-30T19:07:38.875Z,21.98
2017-09-30T19:09:41.657Z,21.98
2017-09-30T19:11:44.116Z,21.90
2017-09-30T19:13:46.638Z,21.75
2017-09-30T19:15:49.112Z,21.86
2017-09-30T19:17:51.560Z,21.92
2017-09-30T19:19:54.003Z,21.94
2017-09-30T19:21:56.523Z,21.96
2017-09-30T19:23:58.957Z,21.95
2017-09-30T19:26:01.457Z,21.97
2017-09-30T19:28:03.934Z,22.01
2017-09-30T19:30:06.672Z,22.01
2017-09-30T19:32:09.108Z,22.04
2017-09-30T19:34:11.657Z,21.96
2017-09-30T19:36:14.099Z,22.00
2017-09-30T19:38:16.560Z,22.00
2017-09-30T19:40:19.013Z,21.98
2017-09-30T19:42:21.460Z,21.96
2017-09-30T19:44:23.891Z,21.92
2017-09-30T19:46:26.381Z,21.96
2017-09-30T19:48:28.818Z,21.97
2017-09-30T19:50:31.305Z,21.99
2017-09-30T19:52:33.778Z,22.00
2017-09-30T19:54:36.243Z,21.98
2017-09-30T19:56:38.698Z,21.99
2017-09-30T19:58:41.274Z,21.96
2017-09-30T20:00:43.720Z,21.98
2017-09-30T20:02:46.163Z,21.92
2017-09-30T20:04:48.629Z,21.89
2017-09-30T20:06:51.075Z,21.89
2017-09-30T20:08:53.520Z,21.94
2017-09-30T20:10:56.001Z,21.92
2017-09-30T20:12:58.481Z,21.93
2017-09-30T20:15:00.925Z,21.88
2017-09-30T20:17:03.382Z,21.91
2017-09-30T20:19:05.819Z,21.86
2017-09-30T20:21:08.259Z,21.86
2017-09-30T20:23:10.741Z,21.89
2017-09-30T20:25:13.181Z,21.93
2017-09-30T20:27:15.623Z,21.89
2017-09-30T20:29:18.090Z,21.91
2017-09-30T20:31:20.619Z,21.90
2017-09-30T20:33:23.102Z,21.78
2017-09-30T20:35:25.839Z,21.88
2017-09-30T20:37:28.297Z,21.90
2017-09-30T20:39:30.780Z,21.92
2017-09-30T20:41:33.244Z,21.88
2017-09-30T20:43:35.778Z,21.88
2017-09-30T20:45:38.224Z,21.90
2017-09-30T20:47:40.705Z,21.91
2017-09-30T20:49:43.165Z,21.92
2017-09-30T20:51:45.624Z,21.92
2017-09-30T20:53:48.084Z,21.92
2017-09-30T20:55:50.564Z,21.88
2017-09-30T20:57:53.021Z,21.90
2017-09-30T20:59:55.518Z,21.90
2017-09-30T21:01:57.977Z,21.88
2017-09-30T21:04:00.421Z,21.88
2017-09-30T21:06:02.881Z,21.87
2017-09-30T21:08:05.324Z,21.85
2017-09-30T21:10:07.852Z,21.85
2017-09-30T21:12:10.341Z,21.84
2017-09-30T21:14:12.788Z,21.82
2017-09-30T21:16:15.229Z,21.82
2017-09-30T21:18:17.732Z,21.82
2017-09-30T21:20:20.200Z,21.81
2017-09-30T21:22:22.644Z,21.85
2017-09-30T21:24:25.184Z,21.79
2017-09-30T21:26:27.620Z,21.75
2017-09-30T21:28:30.087Z,21.76
2017-09-30T21:30:32.583Z,21.80
2017-09-30T21:32:35.026Z,21.83
2017-09-30T21:34:37.468Z,21.86
2017-09-30T21:36:40.210Z,21.81
2017-09-30T21:38:42.648Z,21.76
2017-09-30T21:40:45.113Z,21.76
2017-09-30T21:42:47.579Z,21.87
2017-09-30T21:44:50.055Z,21.80
2017-09-30T21:46:52.511Z,21.68
2017-09-30T21:48:55.049Z,21.67
2017-09-30T21:50:57.552Z,21.72
2017-09-30T21:52:59.986Z,21.70
2017-09-30T21:55:02.483Z,21.71
2017-09-30T21:57:04.932Z,21.75
2017-09-30T21:59:07.445Z,21.63
2017-09-30T22:01:10.013Z,21.69
2017-09-30T22:03:12.452Z,21.72
2017-09-30T22:05:14.898Z,21.71
2017-09-30T22:07:17.421Z,21.67
2017-09-30T22:09:19.851Z,21.71
2017-09-30T22:11:22.295Z,21.69
2017-09-30T22:13:24.768Z,21.71
2017-09-30T22:15:27.204Z,21.73
2017-09-30T22:17:29.676Z,21.70
2017-09-30T22:19:32.150Z,21.70
2017-09-30T22:21:34.584Z,21.65
2017-09-30T22:23:37.036Z,21.66
2017-09-30T22:25:39.498Z,21.63
2017-09-30T22:27:41.930Z,21.66
2017-09-30T22:29:44.370Z,21.63
2017-09-30T22:31:46.837Z,21.64
2017-09-30T22:33:49.273Z,21.69
2017-09-30T22:35:51.715Z,21.64
2017-09-30T22:37:54.468Z,21.66
2017-09-30T22:39:56.913Z,21.63
2017-09-30T22:41:59.420Z,21.67
2017-09-30T22:44:01.876Z,21.66
2017-09-30T22:46:04.352Z,21.65
2017-09-30T22:48:06.782Z,21.64
2017-09-30T22:50:09.300Z,21.55
2017-09-30T22:52:11.737Z,21.60
2017-09-30T22:54:14.176Z,21.62
2017-09-30T22:56:16.640Z,21.62
2017-09-30T22:58:19.081Z,21.60
2017-09-30T23:00:21.516Z,21.64
2017-09-30T23:02:24.034Z,21.65
2017-09-30T23:04:26.531Z,21.69
2017-09-30T23:06:28.960Z,21.65
2017-09-30T23:08:31.417Z,21.67
2017-09-30T23:10:33.869Z,21.66
2017-09-30T23:12:36.324Z,21.61
2017-09-30T23:14:39.036Z,21.64
2017-09-30T23:16:41.512Z,21.68
2017-09-30T23:18:43.960Z,21.63
2017-09-30T23:20:46.430Z,21.65
2017-09-30T23:22:48.881Z,21.73
2017-09-30T23:24:51.351Z,21.72
2017-09-30T23:26:53.804Z,21.66
2017-09-30T23:28:56.332Z,21.71
2017-09-30T23:30:58.766Z,21.68
2017-09-30T23:33:01.243Z,21.74
2017-09-30T23:35:03.681Z,21.69
2017-09-30T23:37:06.151Z,21.70
2017-09-30T23:39:08.929Z,21.63
2017-09-30T23:41:11.370Z,21.63
2017-09-30T23:43:13.835Z,21.56
2017-09-30T23:45:16.396Z,21.56
2017-09-30T23:47:18.842Z,21.53
2017-09-30T23:49:21.289Z,21.57
2017-09-30T23:51:23.768Z,21.61
2017-09-30T23:53:26.212Z,21.55
2017-09-30T23:55:28.648Z,21.63
2017-09-30T23:57:31.127Z,21.64
2017-09-30T23:59:33.612Z,21.63
